Time;durP1;ratioP1;P1;durP2;ratioP2;P2;SDS_P1;SDS_P2;PMS_P1;PMS_P2;Temp;Humidity;BMP_temperature;BMP_pressure;BME280_temperature;BME280_humidity;BME280_pressure;Samples;Min_cycle;Max_cycle;Signal;HPM_P1;HPM_P2
2023/04/16 00:02:40;;;;;;;45.30;28.30;;;;;;;7.83;73.36;100001.85;129426;1263;114737;-63
2023/04/16 00:05:42;;;;;;;45.30;28.80;;;;;;;7.72;73.58;100007.80;129362;1261;116405;-63
2023/04/16 00:08:44;;;;;;;49.80;29.40;;;;;;;7.63;73.33;100005.02;129374;1263;114814;-62
2023/04/16 00:11:47;;;;;;;45.80;29.30;;;;;;;7.53;73.57;100005.55;129377;1261;114753;-62
2023/04/16 00:14:53;;;;;;;42.70;29.40;;;;;;;7.45;74.11;100004.87;129602;1262;115339;-62
2023/04/16 00:17:55;;;;;;;48.90;29.60;;;;;;;7.35;73.51;100007.59;129390;1282;116375;-62
2023/04/16 00:20:58;;;;;;;50.60;31.30;;;;;;;7.25;73.96;100006.02;129424;1262;115103;-62
2023/04/16 00:24:01;;;;;;;45.30;29.20;;;;;;;7.17;73.97;100005.11;129546;1260;114846;-61
2023/04/16 00:27:03;;;;;;;46.90;30.60;;;;;;;7.08;74.12;100000.85;129457;1263;114758;-62
2023/04/16 00:30:07;;;;;;;49.40;31.90;;;;;;;7.00;74.39;100000.07;129466;1263;114794;-63
2023/04/16 00:33:09;;;;;;;49.10;31.90;;;;;;;6.92;74.49;100002.16;129295;1266;127889;-63
2023/04/16 00:36:12;;;;;;;52.10;33.10;;;;;;;6.85;74.41;100007.05;129416;1263;114811;-63
2023/04/16 00:39:14;;;;;;;50.80;34.10;;;;;;;6.78;74.50;100015.86;129459;1263;114740;-62
2023/04/16 00:42:17;;;;;;;59.60;39.80;;;;;;;6.70;74.57;100018.64;129407;1263;114808;-63
2023/04/16 00:45:19;;;;;;;57.40;39.10;;;;;;;6.63;74.81;100015.90;129484;1263;114727;-63
2023/04/16 00:48:22;;;;;;;54.50;35.50;;;;;;;6.55;74.92;100016.70;129323;1260;114717;-62
2023/04/16 00:51:25;;;;;;;57.50;36.60;;;;;;;6.48;74.97;100022.63;129441;1263;114878;-65
2023/04/16 00:54:29;;;;;;;60.50;38.20;;;;;;;6.42;74.92;100022.52;129556;1264;114799;-62
2023/04/16 00:57:32;;;;;;;57.00;37.00;;;;;;;6.33;75.10;100022.11;129312;1266;114874;-64
2023/04/16 01:00:34;;;;;;;57.90;37.60;;;;;;;6.28;75.15;100023.39;129511;1258;115512;-64
2023/04/16 01:03:38;;;;;;;53.00;35.40;;;;;;;6.23;75.31;100023.73;129678;1264;115096;-63
2023/04/16 01:06:41;;;;;;;59.00;36.00;;;;;;;6.19;75.31;100024.25;129680;1275;114712;-63
2023/04/16 01:09:43;;;;;;;59.20;37.90;;;;;;;6.14;75.33;100028.13;129739;1264;114763;-63
2023/04/16 01:12:46;;;;;;;57.40;35.50;;;;;;;6.09;75.46;100032.03;129475;1264;114754;-64
2023/04/16 01:15:48;;;;;;;57.20;36.10;;;;;;;6.04;75.50;100038.05;129451;1280;114909;-63
2023/04/16 01:18:51;;;;;;;61.30;37.80;;;;;;;6.00;75.73;100040.49;129441;1263;114984;-64
2023/04/16 01:21:54;;;;;;;53.80;36.70;;;;;;;5.97;76.08;100042.52;129517;1264;257476;-63
2023/04/16 01:24:56;;;;;;;57.30;37.80;;;;;;;5.93;76.11;100044.59;129410;1264;114738;-63
2023/04/16 01:27:58;;;;;;;61.90;39.20;;;;;;;5.91;76.25;100049.64;129521;1264;114826;-63
2023/04/16 01:31:01;;;;;;;54.20;36.60;;;;;;;5.88;76.37;100050.27;129474;1282;115269;-63
2023/04/16 01:34:03;;;;;;;53.60;35.80;;;;;;;5.84;76.35;100051.10;129420;1260;114788;-65
2023/04/16 01:37:06;;;;;;;56.30;37.00;;;;;;;5.80;76.22;100051.61;129829;1263;115150;-62
2023/04/16 01:40:09;;;;;;;53.00;35.80;;;;;;;5.75;76.43;100051.23;129470;1263;115325;-62
2023/04/16 01:43:11;;;;;;;57.80;38.10;;;;;;;5.70;76.38;100051.93;129489;1262;114750;-62
2023/04/16 01:46:17;;;;;;;61.30;38.60;;;;;;;5.65;76.42;100043.23;129378;1263;114811;-63
2023/04/16 01:49:20;;;;;;;62.00;39.70;;;;;;;5.61;76.36;100040.02;129318;1268;115348;-62
2023/04/16 01:52:22;;;;;;;56.30;36.30;;;;;;;5.56;76.33;100041.41;129408;1263;115360;-63
2023/04/16 01:55:25;;;;;;;50.90;34.60;;;;;;;5.52;76.54;100041.21;129445;1260;114737;-66
2023/04/16 01:58:28;;;;;;;53.20;34.20;;;;;;;5.47;76.54;100041.01;129772;1263;114783;-66
2023/04/16 02:01:30;;;;;;;52.10;32.80;;;;;;;5.43;76.53;100040.61;129747;1264;115288;-63
2023/04/16 02:04:33;;;;;;;55.40;33.30;;;;;;;5.39;76.81;100044.48;129362;1264;128913;-65
2023/04/16 02:07:35;;;;;;;53.30;33.00;;;;;;;5.34;76.65;100040.36;129742;1261;114769;-62
2023/04/16 02:10:37;;;;;;;53.00;33.90;;;;;;;5.29;76.56;100046.20;129749;1263;114712;-62
2023/04/16 02:13:39;;;;;;;51.50;31.80;;;;;;;5.24;76.82;100049.17;129412;1282;114742;-63
2023/04/16 02:16:41;;;;;;;50.20;32.60;;;;;;;5.19;76.96;100053.23;129429;1263;114673;-62
2023/04/16 02:19:44;;;;;;;53.00;34.90;;;;;;;5.14;76.88;100056.21;129385;1264;115092;-63
2023/04/16 02:22:46;;;;;;;52.20;34.90;;;;;;;5.11;77.18;100055.42;129469;1261;114686;-63
2023/04/16 02:25:50;;;;;;;44.40;31.00;;;;;;;5.08;77.24;100059.23;129514;1282;128721;-63
2023/04/16 02:28:53;;;;;;;53.00;32.80;;;;;;;5.05;77.17;100066.58;129403;1261;114715;-62
2023/04/16 02:31:55;;;;;;;50.20;32.00;;;;;;;5.01;77.02;100069.00;129387;1263;115089;-62
2023/04/16 02:34:58;;;;;;;47.40;30.20;;;;;;;4.98;77.06;100072.45;129455;1263;114730;-62
2023/04/16 02:38:02;;;;;;;50.60;33.60;;;;;;;4.94;77.14;100071.15;129442;1261;114756;-63
2023/04/16 02:41:04;;;;;;;48.10;32.30;;;;;;;4.92;77.36;100075.11;129775;1282;114856;-64
2023/04/16 02:44:06;;;;;;;50.40;34.30;;;;;;;4.89;77.26;100076.09;129637;1280;115401;-62
2023/04/16 02:47:09;;;;;;;48.70;31.90;;;;;;;4.87;77.37;100072.09;129424;1258;114711;-62
2023/04/16 02:50:11;;;;;;;49.20;34.10;;;;;;;4.84;77.40;100076.23;129446;1260;114739;-62
2023/04/16 02:53:13;;;;;;;46.60;32.40;;;;;;;4.82;77.50;100080.17;129504;1282;114738;-63
2023/04/16 02:56:16;;;;;;;49.70;33.70;;;;;;;4.79;77.86;100082.39;129566;1281;114838;-62
2023/04/16 02:59:18;;;;;;;50.10;33.20;;;;;;;4.76;77.79;100086.19;129459;1264;114744;-62
2023/04/16 03:02:20;;;;;;;47.70;32.60;;;;;;;4.75;77.68;100095.23;129437;1263;114739;-62
2023/04/16 03:05:22;;;;;;;55.00;33.10;;;;;;;4.73;77.93;100095.83;129625;1264;115234;-63
2023/04/16 03:08:25;;;;;;;52.80;34.10;;;;;;;4.71;77.92;100095.16;129393;1282;115092;-63
2023/04/16 03:11:27;;;;;;;47.20;31.90;;;;;;;4.70;77.99;100097.16;129494;1261;114727;-62
2023/04/16 03:14:30;;;;;;;50.60;31.80;;;;;;;4.68;78.17;100100.21;129358;1261;114805;-63
2023/04/16 03:17:32;;;;;;;49.90;33.00;;;;;;;4.66;77.97;100102.59;129500;1264;114720;-63
2023/04/16 03:20:34;;;;;;;50.70;31.30;;;;;;;4.66;78.34;100107.00;129477;1264;114715;-63
2023/04/16 03:23:36;;;;;;;48.30;31.40;;;;;;;4.65;78.29;100108.95;129249;1266;114776;-64
2023/04/16 03:26:38;;;;;;;50.00;29.40;;;;;;;4.64;78.33;100112.89;129670;1263;115051;-63
2023/04/16 03:29:40;;;;;;;48.30;31.80;;;;;;;4.63;78.47;100115.77;129702;1264;114689;-64
2023/04/16 03:32:43;;;;;;;43.80;28.50;;;;;;;4.61;78.49;100119.34;129711;1263;115190;-63
2023/04/16 03:35:45;;;;;;;46.90;30.70;;;;;;;4.60;78.46;100121.84;129721;1264;115281;-64
2023/04/16 03:38:47;;;;;;;49.50;30.40;;;;;;;4.59;78.62;100128.25;129772;1263;114801;-64
2023/04/16 03:41:49;;;;;;;49.00;30.60;;;;;;;4.61;79.05;100129.61;129665;1279;114797;-64
2023/04/16 03:44:52;;;;;;;48.60;30.90;;;;;;;4.63;79.25;100130.08;129637;1268;115156;-65
2023/04/16 03:47:54;;;;;;;48.20;29.60;;;;;;;4.66;79.26;100131.39;129682;1258;114726;-64
2023/04/16 03:50:56;;;;;;;50.00;31.00;;;;;;;4.71;79.46;100134.28;129741;1282;115092;-65
2023/04/16 03:53:58;;;;;;;51.40;31.20;;;;;;;4.75;79.53;100135.95;129440;1266;116445;-66
2023/04/16 03:57:00;;;;;;;53.30;31.10;;;;;;;4.81;79.73;100142.15;129730;1260;114723;-64
2023/04/16 04:00:03;;;;;;;60.50;32.10;;;;;;;4.87;79.72;100146.56;129701;1263;114740;-63
2023/04/16 04:03:05;;;;;;;63.60;35.60;;;;;;;4.95;80.12;100152.18;129578;1264;114890;-63
2023/04/16 04:06:08;;;;;;;88.20;37.50;;;;;;;5.03;80.27;100149.45;129365;1264;116281;-63
2023/04/16 04:09:10;;;;;;;77.40;38.10;;;;;;;5.12;80.61;100150.80;129732;1263;115087;-63
2023/04/16 04:12:12;;;;;;;74.30;39.80;;;;;;;5.22;80.79;100152.11;129443;1261;114753;-62
2023/04/16 04:15:15;;;;;;;70.60;38.20;;;;;;;5.31;80.82;100159.27;129429;1282;115188;-63
2023/04/16 04:18:17;;;;;;;78.30;38.20;;;;;;;5.42;80.92;100161.41;129469;1263;114769;-63
2023/04/16 04:21:19;;;;;;;75.80;41.00;;;;;;;5.52;81.04;100168.55;129388;1262;114733;-65
2023/04/16 04:24:22;;;;;;;68.40;39.50;;;;;;;5.63;81.02;100171.93;129803;1258;114724;-62
2023/04/16 04:27:23;;;;;;;71.10;40.60;;;;;;;5.73;81.19;100173.58;129155;1268;114888;-61
2023/04/16 04:30:25;;;;;;;71.70;38.70;;;;;;;5.83;81.22;100174.67;129358;1282;115106;-60
2023/04/16 04:33:28;;;;;;;70.90;40.40;;;;;;;5.93;81.28;100179.65;129518;1263;114829;-65
2023/04/16 04:36:31;;;;;;;61.60;39.60;;;;;;;6.03;81.26;100175.30;129536;1266;115329;-62
2023/04/16 04:39:33;;;;;;;67.90;39.90;;;;;;;6.13;81.29;100176.04;129407;1263;114707;-64
2023/04/16 04:42:36;;;;;;;64.20;39.30;;;;;;;6.22;81.17;100177.17;129412;1264;114716;-64
2023/04/16 04:45:39;;;;;;;71.00;43.10;;;;;;;6.28;80.88;100180.15;129467;1264;114788;-66
2023/04/16 04:48:41;;;;;;;69.80;42.00;;;;;;;6.34;80.94;100180.48;129734;1263;114886;-65
2023/04/16 04:51:43;;;;;;;70.90;40.40;;;;;;;6.39;80.91;100181.03;129730;1260;114728;-69
2023/04/16 04:54:46;;;;;;;64.60;40.60;;;;;;;6.45;80.84;100178.16;129529;1274;115173;-69
2023/04/16 04:57:48;;;;;;;64.50;40.80;;;;;;;6.53;80.89;100180.02;129752;1274;114785;-74
2023/04/16 05:00:50;;;;;;;67.30;40.40;;;;;;;6.60;81.05;100179.39;129821;1263;115224;-70
2023/04/16 05:03:53;;;;;;;68.80;41.10;;;;;;;6.70;80.93;100180.33;129522;1279;114717;-69
2023/04/16 05:06:55;;;;;;;64.80;40.00;;;;;;;6.80;80.85;100185.84;129487;1267;114811;-64
2023/04/16 05:09:57;;;;;;;71.40;43.90;;;;;;;6.91;81.21;100190.06;129731;1263;114734;-67
2023/04/16 05:12:59;;;;;;;81.50;47.30;;;;;;;7.03;80.82;100195.45;129846;1261;114806;-66
2023/04/16 05:16:01;;;;;;;86.60;49.10;;;;;;;7.17;80.90;100197.27;129516;1266;114764;-68
2023/04/16 05:19:03;;;;;;;89.70;50.20;;;;;;;7.34;81.16;100204.09;129713;1264;114749;-61
2023/04/16 05:22:05;;;;;;;78.50;45.90;;;;;;;7.54;81.00;100198.70;129451;1264;114734;-62
2023/04/16 05:25:08;;;;;;;73.90;42.80;;;;;;;7.77;80.83;100203.33;129521;1261;114724;-60
2023/04/16 05:28:11;;;;;;;67.50;40.70;;;;;;;8.02;81.02;100206.09;129395;1263;114708;-60
2023/04/16 05:31:13;;;;;;;61.20;38.10;;;;;;;8.24;80.72;100210.72;129401;1263;114828;-61
2023/04/16 05:34:15;;;;;;;53.40;35.10;;;;;;;8.46;80.54;100217.11;129425;1261;115418;-63
2023/04/16 05:37:17;;;;;;;48.90;31.30;;;;;;;8.69;80.38;100220.25;129208;1279;116627;-63
2023/04/16 05:40:19;;;;;;;43.30;28.10;;;;;;;8.93;80.42;100224.92;129421;1262;115127;-61
2023/04/16 05:43:21;;;;;;;41.30;28.20;;;;;;;9.16;79.99;100222.27;129361;1264;115228;-60
2023/04/16 05:46:24;;;;;;;35.60;24.90;;;;;;;9.40;79.73;100226.04;129357;1261;114714;-59
2023/04/16 05:49:26;;;;;;;35.70;25.60;;;;;;;9.61;79.28;100227.18;129389;1263;114727;-60
2023/04/16 05:52:29;;;;;;;39.70;27.30;;;;;;;9.83;79.21;100228.46;129431;1261;114795;-59
2023/04/16 05:55:31;;;;;;;44.00;27.40;;;;;;;9.99;78.82;100231.27;129470;1261;115420;-61
2023/04/16 05:58:34;;;;;;;40.90;29.00;;;;;;;10.14;78.58;100231.98;129227;1263;115204;-61
2023/04/16 06:01:36;;;;;;;36.50;25.10;;;;;;;10.29;78.02;100234.66;129326;1261;114820;-61
2023/04/16 06:04:38;;;;;;;33.00;23.50;;;;;;;10.48;78.47;100235.90;129522;1260;114839;-60
2023/04/16 06:07:41;;;;;;;33.20;24.10;;;;;;;10.70;78.14;100242.10;129403;1264;114757;-61
2023/04/16 06:10:45;;;;;;;32.80;24.00;;;;;;;10.99;78.09;100245.46;129539;1261;114733;-60
2023/04/16 06:13:48;;;;;;;33.80;23.20;;;;;;;11.35;78.34;100243.37;129525;1261;128880;-65
2023/04/16 06:16:50;;;;;;;36.70;23.10;;;;;;;11.67;77.59;100241.14;129820;1262;115285;-64
2023/04/16 06:19:52;;;;;;;32.60;21.60;;;;;;;11.89;76.96;100243.13;129796;1263;114887;-65
2023/04/16 06:22:54;;;;;;;32.30;22.50;;;;;;;12.15;76.60;100249.95;129409;1262;114825;-64
2023/04/16 06:25:57;;;;;;;33.20;22.10;;;;;;;12.44;76.28;100259.94;129712;1263;114721;-64
2023/04/16 06:28:59;;;;;;;31.60;22.10;;;;;;;12.77;76.44;100261.93;129688;1263;114730;-64
2023/04/16 06:32:02;;;;;;;32.80;22.90;;;;;;;13.21;75.94;100263.63;129671;1263;114736;-64
2023/04/16 06:35:07;;;;;;;33.40;23.20;;;;;;;13.56;75.20;100263.83;129763;1262;114737;-66
2023/04/16 06:38:09;;;;;;;30.10;22.00;;;;;;;13.78;74.61;100265.84;129467;1266;115343;-66
2023/04/16 06:41:13;;;;;;;30.20;22.10;;;;;;;14.03;74.13;100266.77;129711;1261;114704;-66
2023/04/16 06:44:15;;;;;;;30.00;22.10;;;;;;;14.27;73.62;100260.77;129816;1260;114886;-64
2023/04/16 06:47:17;;;;;;;31.50;22.60;;;;;;;14.54;73.20;100263.27;129710;1259;114768;-66
2023/04/16 06:50:20;;;;;;;30.50;21.60;;;;;;;14.63;71.96;100263.26;129711;1261;114811;-65
2023/04/16 06:53:22;;;;;;;29.20;21.80;;;;;;;14.66;71.81;100263.18;129682;1263;127960;-65
2023/04/16 06:56:25;;;;;;;29.50;22.80;;;;;;;14.72;71.33;100265.55;129640;1264;115457;-66
2023/04/16 06:59:27;;;;;;;27.30;22.20;;;;;;;14.80;70.96;100266.05;129642;1261;114765;-65
2023/04/16 07:02:29;;;;;;;33.20;22.10;;;;;;;14.96;70.91;100267.66;129757;1275;114737;-63
2023/04/16 07:05:31;;;;;;;28.00;21.10;;;;;;;15.04;70.35;100270.55;129468;1261;115195;-66
2023/04/16 07:08:33;;;;;;;30.90;23.00;;;;;;;15.10;70.03;100277.38;129785;1262;114695;-65
2023/04/16 07:11:36;;;;;;;27.40;21.00;;;;;;;15.25;69.97;100279.35;129770;1258;115624;-63
2023/04/16 07:14:38;;;;;;;28.30;21.00;;;;;;;15.51;69.77;100282.78;129288;1264;128681;-66
2023/04/16 07:17:43;;;;;;;30.60;22.40;;;;;;;15.88;69.58;100287.25;129676;1262;114814;-66
2023/04/16 07:20:45;;;;;;;31.70;24.60;;;;;;;16.28;68.97;100291.88;129448;1261;114932;-66
2023/04/16 07:23:47;;;;;;;34.40;23.80;;;;;;;16.68;68.26;100293.67;129664;1264;114740;-65
2023/04/16 07:26:49;;;;;;;36.10;25.60;;;;;;;16.99;67.56;100297.11;129754;1262;114739;-65
2023/04/16 07:29:51;;;;;;;33.60;25.30;;;;;;;17.24;66.88;100297.55;129757;1263;114821;-65
2023/04/16 07:32:54;;;;;;;32.70;23.90;;;;;;;17.52;66.24;100296.45;129517;1278;126800;-66
2023/04/16 07:35:56;;;;;;;31.10;24.50;;;;;;;17.71;65.50;100300.55;129665;1262;114769;-67
2023/04/16 07:38:58;;;;;;;30.60;23.30;;;;;;;17.93;65.20;100301.53;129697;1263;114727;-67
2023/04/16 07:42:01;;;;;;;30.30;23.00;;;;;;;18.13;64.49;100305.73;129825;1263;114855;-67
2023/04/16 07:45:03;;;;;;;29.50;23.00;;;;;;;18.23;63.90;100309.40;129813;1261;115052;-67
2023/04/16 07:48:05;;;;;;;31.20;23.30;;;;;;;18.45;63.61;100308.17;129631;1260;114737;-67
2023/04/16 07:51:07;;;;;;;29.10;22.90;;;;;;;18.62;63.16;100311.45;129743;1281;114752;-66
2023/04/16 07:54:09;;;;;;;26.10;21.80;;;;;;;18.83;62.77;100310.29;129703;1261;128983;-67
2023/04/16 07:57:12;;;;;;;27.70;20.90;;;;;;;19.09;62.52;100311.56;129618;1263;115191;-66
2023/04/16 08:00:14;;;;;;;26.20;20.40;;;;;;;19.30;61.62;100309.40;129745;1264;115265;-65
2023/04/16 08:03:16;;;;;;;28.30;21.10;;;;;;;19.47;60.85;100315.77;129707;1263;115185;-66
2023/04/16 08:06:19;;;;;;;25.60;20.50;;;;;;;19.54;60.20;100317.14;129774;1263;114867;-68
2023/04/16 08:09:22;;;;;;;26.70;19.20;;;;;;;19.63;59.85;100317.84;129898;1281;114723;-65
2023/04/16 08:12:24;;;;;;;25.70;18.20;;;;;;;19.68;59.65;100321.70;129753;1263;114829;-68
2023/04/16 08:15:26;;;;;;;19.20;14.30;;;;;;;19.76;59.11;100319.03;129747;1263;114919;-67
2023/04/16 08:18:31;;;;;;;20.40;15.30;;;;;;;19.99;58.74;100324.13;129722;1266;115170;-66
2023/04/16 08:21:34;;;;;;;18.90;15.40;;;;;;;20.19;58.32;100324.86;129794;1264;114915;-65
2023/04/16 08:24:36;;;;;;;18.10;14.80;;;;;;;20.13;58.00;100323.29;129674;1282;114775;-66
2023/04/16 08:27:39;;;;;;;19.90;15.90;;;;;;;20.09;57.23;100325.05;129786;1261;114772;-67
2023/04/16 08:30:41;;;;;;;20.10;17.00;;;;;;;19.93;57.29;100321.89;129926;1261;115103;-67
2023/04/16 08:33:43;;;;;;;13.80;11.80;;;;;;;19.98;57.14;100321.83;129486;1261;128749;-67
2023/04/16 08:36:45;;;;;;;12.40;10.50;;;;;;;19.87;56.29;100323.28;129818;1264;114836;-64
2023/04/16 08:39:47;;;;;;;14.00;11.20;;;;;;;20.03;56.00;100321.76;129863;1263;114826;-64
2023/04/16 08:42:54;;;;;;;9.80;7.80;;;;;;;20.15;55.57;100325.45;129719;1263;114843;-66
2023/04/16 08:45:58;;;;;;;8.50;7.40;;;;;;;20.20;55.36;100329.84;129602;1259;115407;-65
2023/04/16 08:49:01;;;;;;;11.00;8.90;;;;;;;20.19;54.55;100332.64;129780;1280;114753;-65
2023/04/16 08:52:05;;;;;;;11.90;9.30;;;;;;;20.06;54.37;100335.83;129661;1278;129029;-65
2023/04/16 08:55:15;;;;;;;5.10;2.80;;;;;;;19.84;53.25;100342.66;129588;1266;115284;-67
2023/04/16 08:58:20;;;;;;;2.90;2.60;;;;;;;19.45;52.73;100348.67;129756;1282;114782;-66
2023/04/16 09:01:25;;;;;;;4.30;3.20;;;;;;;19.25;52.53;100352.40;129560;1266;115354;-67
2023/04/16 09:04:27;;;;;;;5.90;4.60;;;;;;;19.13;52.72;100355.52;129756;1282;114705;-66
2023/04/16 09:07:30;;;;;;;5.20;3.40;;;;;;;19.15;52.84;100353.63;129706;1278;115315;-66
2023/04/16 09:10:32;;;;;;;4.20;2.70;;;;;;;19.22;52.38;100355.73;129732;1263;114791;-66
2023/04/16 09:13:36;;;;;;;4.20;3.70;;;;;;;19.24;52.27;100352.10;129732;1282;114731;-65
2023/04/16 09:16:40;;;;;;;4.50;3.40;;;;;;;19.31;51.94;100351.73;129817;1263;115295;-65
2023/04/16 09:19:42;;;;;;;4.30;2.10;;;;;;;19.24;51.41;100357.70;129683;1282;115197;-65
2023/04/16 09:22:45;;;;;;;4.30;3.30;;;;;;;19.11;50.70;100359.77;129723;1279;114787;-65
2023/04/16 09:25:47;;;;;;;6.70;4.20;;;;;;;18.94;51.15;100360.63;129679;1263;114800;-66
2023/04/16 09:28:52;;;;;;;5.00;4.00;;;;;;;18.90;51.71;100356.55;129782;1263;114737;-65
2023/04/16 09:32:05;;;;;;;5.10;4.20;;;;;;;18.92;51.57;100355.27;129699;1261;115264;-64
2023/04/16 09:35:07;;;;;;;5.40;4.20;;;;;;;18.87;51.40;100354.16;129736;1262;114727;-64
2023/04/16 09:38:09;;;;;;;5.60;3.90;;;;;;;18.86;51.37;100360.04;129728;1282;115309;-64
2023/04/16 09:41:11;;;;;;;6.70;5.50;;;;;;;18.71;50.86;100360.52;129792;1263;115105;-65
2023/04/16 09:44:13;;;;;;;5.90;3.80;;;;;;;18.53;51.10;100366.30;129584;1264;114798;-66
2023/04/16 09:47:15;;;;;;;5.60;4.20;;;;;;;18.38;50.95;100372.91;129657;1282;115391;-66
2023/04/16 09:50:18;;;;;;;6.10;3.60;;;;;;;18.31;51.23;100377.29;129757;1282;114708;-65
2023/04/16 09:53:29;;;;;;;4.50;3.20;;;;;;;18.27;51.10;100372.73;129571;1266;116802;-67
2023/04/16 09:56:31;;;;;;;4.40;3.60;;;;;;;18.19;50.56;100378.08;129576;1266;114813;-66
2023/04/16 09:59:34;;;;;;;2.60;2.30;;;;;;;18.12;50.62;100382.30;129622;1282;114730;-65
2023/04/16 10:02:40;;;;;;;3.90;3.00;;;;;;;18.14;50.60;100385.36;129684;1282;114874;-68
2023/04/16 10:05:42;;;;;;;5.10;3.40;;;;;;;18.21;50.24;100382.84;129446;1269;127927;-66
2023/04/16 10:08:52;;;;;;;3.30;2.50;;;;;;;18.21;50.06;100380.95;129656;1262;114804;-65
2023/04/16 10:11:54;;;;;;;2.50;2.00;;;;;;;18.28;50.24;100382.95;129695;1263;114840;-66
2023/04/16 10:14:56;;;;;;;3.10;2.50;;;;;;;18.34;50.01;100381.21;129636;1261;114781;-65
2023/04/16 10:17:59;;;;;;;2.80;2.10;;;;;;;18.35;49.54;100381.52;129755;1278;114647;-65
2023/04/16 10:21:01;;;;;;;3.50;2.80;;;;;;;18.43;49.41;100380.15;129443;1282;114935;-65
2023/04/16 10:24:04;;;;;;;6.10;4.60;;;;;;;18.51;49.68;100377.86;129700;1261;114750;-64
2023/04/16 10:27:06;;;;;;;7.70;5.70;;;;;;;18.64;50.22;100380.41;129648;1282;114861;-64
2023/04/16 10:30:09;;;;;;;4.40;3.60;;;;;;;18.84;50.27;100375.91;129773;1263;114798;-64
2023/04/16 10:33:11;;;;;;;4.30;3.00;;;;;;;18.87;49.59;100373.70;129420;1266;115000;-65
2023/04/16 10:36:22;;;;;;;3.70;3.30;;;;;;;18.89;49.37;100372.25;129627;1267;114801;-65
2023/04/16 10:39:27;;;;;;;5.40;3.80;;;;;;;18.78;48.57;100374.23;129284;1282;114835;-65
2023/04/16 10:42:30;;;;;;;6.70;5.60;;;;;;;18.64;48.94;100380.20;129757;1264;128579;-65
2023/04/16 10:45:37;;;;;;;7.90;3.80;;;;;;;18.66;48.90;100380.44;129711;1262;114786;-65
2023/04/16 10:48:41;;;;;;;3.90;3.50;;;;;;;18.64;49.03;100380.91;129439;1266;114807;-65
2023/04/16 10:51:52;;;;;;;8.10;7.10;;;;;;;18.58;48.41;100382.77;129896;1264;114788;-65
2023/04/16 10:54:58;;;;;;;7.30;5.20;;;;;;;18.32;48.41;100382.46;129670;1282;114951;-65
2023/04/16 10:58:00;;;;;;;5.70;4.60;;;;;;;18.10;48.33;100385.16;129726;1261;126973;-65
2023/04/16 11:01:13;;;;;;;4.80;4.20;;;;;;;18.05;49.15;100384.98;129617;1262;114779;-65
2023/04/16 11:04:21;;;;;;;5.80;4.70;;;;;;;18.04;49.59;100387.44;129854;1277;114724;-66
2023/04/16 11:07:33;;;;;;;5.70;4.30;;;;;;;17.94;49.05;100389.80;129550;1264;114860;-65
2023/04/16 11:10:38;;;;;;;5.90;4.60;;;;;;;17.79;49.37;100391.13;129536;1264;114846;-64
2023/04/16 11:13:43;;;;;;;6.40;4.90;;;;;;;17.77;49.51;100394.02;129682;1264;128139;-65
2023/04/16 11:16:45;;;;;;;5.40;4.40;;;;;;;17.71;49.79;100388.30;129745;1267;115284;-65
2023/04/16 11:19:47;;;;;;;5.70;4.60;;;;;;;17.65;49.63;100388.23;129679;1261;114889;-65
2023/04/16 11:22:52;;;;;;;5.60;4.90;;;;;;;17.53;49.75;100383.96;129782;1263;114744;-65
2023/04/16 11:25:57;;;;;;;6.50;5.70;;;;;;;17.42;50.08;100381.89;129525;1264;114894;-65
2023/04/16 11:28:59;;;;;;;5.50;4.70;;;;;;;17.40;50.35;100383.48;129610;1283;114738;-64
2023/04/16 11:32:02;;;;;;;4.90;4.10;;;;;;;17.45;49.89;100383.88;129579;1283;115275;-65
2023/04/16 11:35:13;;;;;;;6.00;4.20;;;;;;;17.53;50.04;100383.93;129664;1282;114781;-66
2023/04/16 11:38:17;;;;;;;5.10;4.60;;;;;;;17.60;49.47;100387.04;129556;1263;114919;-65
2023/04/16 11:41:20;;;;;;;6.00;5.20;;;;;;;17.38;49.48;100397.38;129788;1264;114766;-65
2023/04/16 11:44:25;;;;;;;5.00;4.30;;;;;;;17.06;49.63;100397.45;129897;1283;114730;-66
2023/04/16 11:47:31;;;;;;;6.00;5.20;;;;;;;16.76;50.05;100400.33;129515;1282;127615;-67
2023/04/16 11:50:34;;;;;;;5.80;4.90;;;;;;;16.53;50.08;100402.59;129312;1273;115192;-66
2023/04/16 11:53:45;;;;;;;5.70;5.10;;;;;;;16.34;50.61;100397.42;129780;1263;114801;-64
2023/04/16 11:56:50;;;;;;;5.80;5.10;;;;;;;16.28;50.80;100394.98;129822;1264;114791;-68
2023/04/16 11:59:52;;;;;;;6.60;4.70;;;;;;;16.25;50.90;100400.24;129477;1267;114821;-65
2023/04/16 12:02:54;;;;;;;5.00;4.50;;;;;;;16.08;50.82;100399.63;129680;1272;114823;-64
2023/04/16 12:06:06;;;;;;;4.90;4.20;;;;;;;15.97;51.02;100396.42;129751;1282;114759;-65
2023/04/16 12:09:25;;;;;;;4.60;4.10;;;;;;;15.93;51.22;100393.50;129100;1264;115211;-64
2023/04/16 12:12:29;;;;;;;5.60;4.40;;;;;;;15.88;50.84;100396.34;129797;1263;114722;-64
2023/04/16 12:15:42;;;;;;;;;;;;;;;15.78;50.97;100400.29;129714;1264;114836;-63
2023/04/16 12:19:02;;;;;;;9.00;5.30;;;;;;;15.70;51.25;100398.84;129738;1265;114812;-64
2023/04/16 12:22:06;;;;;;;5.80;4.70;;;;;;;15.66;51.13;100398.42;129432;1265;128314;-64
2023/04/16 12:25:16;;;;;;;6.10;4.70;;;;;;;15.66;51.41;100395.00;129620;1263;114743;-64
2023/04/16 12:28:31;;;;;;;5.40;4.70;;;;;;;15.77;51.63;100396.04;129735;1263;114770;-66
2023/04/16 12:31:37;;;;;;;12.10;9.30;;;;;;;15.89;51.49;100395.74;129537;1267;114841;-65
2023/04/16 12:34:49;;;;;;;7.30;5.80;;;;;;;16.02;51.59;100391.62;129719;1262;114800;-65
2023/04/16 12:37:51;;;;;;;5.40;4.40;;;;;;;16.17;51.29;100389.64;129401;1278;127875;-65
2023/04/16 12:40:55;;;;;;;4.30;3.80;;;;;;;16.23;50.82;100384.89;129685;1265;114722;-64
2023/04/16 12:44:19;;;;;;;5.70;4.60;;;;;;;16.26;50.54;100386.87;129710;1264;114888;-65
2023/04/16 12:47:22;;;;;;;4.60;4.10;;;;;;;16.24;50.57;100387.86;129727;1263;114985;-65
2023/04/16 12:50:24;;;;;;;6.90;4.30;;;;;;;16.27;50.49;100389.67;129683;1263;114740;-64
2023/04/16 12:53:26;;;;;;;5.30;4.30;;;;;;;16.25;50.68;100388.88;129769;1280;114715;-65
2023/04/16 12:56:29;;;;;;;4.60;3.70;;;;;;;16.27;50.30;100391.27;129718;1264;129023;-64
2023/04/16 12:59:31;;;;;;;6.00;4.20;;;;;;;16.28;50.45;100391.56;129857;1264;114875;-64
2023/04/16 13:02:33;;;;;;;4.60;3.90;;;;;;;16.27;50.56;100392.16;129862;1262;114823;-65
2023/04/16 13:05:35;;;;;;;4.00;3.40;;;;;;;16.34;50.80;100388.81;129738;1263;115223;-64
2023/04/16 13:08:37;;;;;;;4.20;3.80;;;;;;;16.45;50.90;100389.79;129397;1263;115261;-65
2023/04/16 13:11:40;;;;;;;5.00;4.50;;;;;;;16.54;50.76;100392.55;129693;1263;114760;-65
2023/04/16 13:14:42;;;;;;;5.20;4.30;;;;;;;16.53;50.57;100391.89;129674;1263;114743;-64
2023/04/16 13:17:44;;;;;;;6.50;4.30;;;;;;;16.55;50.49;100392.88;129780;1272;114718;-68
2023/04/16 13:20:47;;;;;;;5.10;3.90;;;;;;;16.54;50.44;100389.70;129645;1263;116495;-64
2023/04/16 13:23:49;;;;;;;4.10;3.70;;;;;;;16.51;50.30;100384.83;129468;1264;267908;-65
2023/04/16 13:26:52;;;;;;;4.30;3.40;;;;;;;16.48;50.36;100386.88;129727;1264;114894;-65
2023/04/16 13:29:54;;;;;;;4.30;3.50;;;;;;;16.43;50.09;100388.17;129748;1263;115322;-64
2023/04/16 13:32:57;;;;;;;13.60;11.00;;;;;;;16.36;50.20;100387.35;129792;1264;114802;-65
2023/04/16 13:35:59;;;;;;;5.20;3.90;;;;;;;16.33;50.06;100385.44;129725;1263;114817;-65
2023/04/16 13:39:03;;;;;;;5.20;3.50;;;;;;;16.25;50.00;100382.17;129830;1282;114798;-65
2023/04/16 13:42:05;;;;;;;5.10;4.00;;;;;;;16.23;50.08;100381.11;129489;1268;114916;-65
2023/04/16 13:45:10;;;;;;;3.50;2.80;;;;;;;16.18;49.78;100381.09;129734;1282;114786;-65